sensor_id;sensor_type;location;lat;lon;timestamp;temperature;humidity
9265;DHT22;4669;49.594;10.958;2023-12-07T05:26:02;1.70;99.90
9265;DHT22;4669;49.594;10.958;2023-12-07T05:31:04;1.70;99.90
9265;DHT22;4669;49.594;10.958;2023-12-07T05:36:08;1.60;99.90
9265;DHT22;4669;49.594;10.958;2023-12-07T05:41:12;1.50;99.90
9265;DHT22;4669;49.594;10.958;2023-12-07T05:46:14;1.50;99.90
9265;DHT22;4669;49.594;10.958;2023-12-07T05:51:17;1.40;99.90
9265;DHT22;4669;49.594;10.958;2023-12-07T05:56:22;1.40;99.90
9265;DHT22;4669;49.594;10.958;2023-12-07T06:01:25;1.40;99.90
9265;DHT22;4669;49.594;10.958;2023-12-07T06:06:27;1.30;99.90
9265;DHT22;4669;49.594;10.958;2023-12-07T06:11:30;1.40;99.90
9265;DHT22;4669;49.594;10.958;2023-12-07T06:16:32;1.30;99.90
9265;DHT22;4669;49.594;10.958;2023-12-07T06:21:34;1.30;99.90
9265;DHT22;4669;49.594;10.958;2023-12-07T06:26:37;1.30;99.90
9265;DHT22;4669;49.594;10.958;2023-12-07T06:31:43;1.30;99.90
9265;DHT22;4669;49.594;10.958;2023-12-07T06:36:45;1.30;99.90
9265;DHT22;4669;49.594;10.958;2023-12-07T06:41:49;1.30;99.90
9265;DHT22;4669;49.594;10.958;2023-12-07T06:46:51;1.40;99.90
9265;DHT22;4669;49.594;10.958;2023-12-07T06:51:53;1.40;99.90
9265;DHT22;4669;49.594;10.958;2023-12-07T06:56:56;1.40;99.90
9265;DHT22;4669;49.594;10.958;2023-12-07T07:01:58;1.50;99.90
9265;DHT22;4669;49.594;10.958;2023-12-07T07:07:00;1.50;99.90
9265;DHT22;4669;49.594;10.958;2023-12-07T07:12:05;1.50;99.90
9265;DHT22;4669;49.594;10.958;2023-12-07T07:17:07;1.60;99.90
9265;DHT22;4669;49.594;10.958;2023-12-07T07:22:09;1.60;99.90
9265;DHT22;4669;49.594;10.958;2023-12-07T07:27:12;1.60;99.90
9265;DHT22;4669;49.594;10.958;2023-12-07T07:32:14;1.70;99.90
9265;DHT22;4669;49.594;10.958;2023-12-07T07:37:16;1.90;99.90
9265;DHT22;4669;49.594;10.958;2023-12-07T07:42:21;1.90;99.90
9265;DHT22;4669;49.594;10.958;2023-12-07T07:47:23;2.00;99.90
9265;DHT22;4669;49.594;10.958;2023-12-07T07:52:24;2.00;99.90
9265;DHT22;4669;49.594;10.958;2023-12-07T07:57:28;2.00;99.90
9265;DHT22;4669;49.594;10.958;2023-12-07T08:02:31;2.00;99.90
9265;DHT22;4669;49.594;10.958;2023-12-07T08:07:33;2.00;99.90
9265;DHT22;4669;49.594;10.958;2023-12-07T08:12:36;2.10;99.90
9265;DHT22;4669;49.594;10.958;2023-12-07T08:17:39;2.10;99.90
9265;DHT22;4669;49.594;10.958;2023-12-07T08:22:41;2.10;99.90
9265;DHT22;4669;49.594;10.958;2023-12-07T08:27:44;2.30;99.90
9265;DHT22;4669;49.594;10.958;2023-12-07T08:32:47;2.40;99.90
9265;DHT22;4669;49.594;10.958;2023-12-07T08:37:49;2.30;99.90
9265;DHT22;4669;49.594;10.958;2023-12-07T08:42:54;2.30;99.90
9265;DHT22;4669;49.594;10.958;2023-12-07T08:47:56;2.30;99.90
9265;DHT22;4669;49.594;10.958;2023-12-07T08:52:58;2.20;99.90
9265;DHT22;4669;49.594;10.958;2023-12-07T08:58:02;2.20;99.90
9265;DHT22;4669;49.594;10.958;2023-12-07T09:03:05;2.20;99.90
9265;DHT22;4669;49.594;10.958;2023-12-07T09:08:06;2.10;99.90
9265;DHT22;4669;49.594;10.958;2023-12-07T09:13:10;2.20;99.90
9265;DHT22;4669;49.594;10.958;2023-12-07T09:18:12;2.20;99.90
9265;DHT22;4669;49.594;10.958;2023-12-07T09:23:14;2.30;99.90
9265;DHT22;4669;49.594;10.958;2023-12-07T09:28:18;2.30;99.90
9265;DHT22;4669;49.594;10.958;2023-12-07T09:33:20;2.30;99.90
9265;DHT22;4669;49.594;10.958;2023-12-07T09:38:22;2.40;99.90
9265;DHT22;4669;49.594;10.958;2023-12-07T09:43:25;2.50;99.90
9265;DHT22;4669;49.594;10.958;2023-12-07T09:48:28;2.60;99.90
9265;DHT22;4669;49.594;10.958;2023-12-07T09:53:33;2.60;99.90
9265;DHT22;4669;49.594;10.958;2023-12-07T09:58:36;2.70;99.90
9265;DHT22;4669;49.594;10.958;2023-12-07T10:03:41;2.70;99.90
9265;DHT22;4669;49.594;10.958;2023-12-07T10:08:43;2.70;99.90
9265;DHT22;4669;49.594;10.958;2023-12-07T10:13:48;2.70;99.90
9265;DHT22;4669;49.594;10.958;2023-12-07T10:18:50;2.60;99.90
9265;DHT22;4669;49.594;10.958;2023-12-07T10:23:52;2.60;99.90
9265;DHT22;4669;49.594;10.958;2023-12-07T10:28:56;2.70;99.90
9265;DHT22;4669;49.594;10.958;2023-12-07T10:34:00;2.80;99.90
9265;DHT22;4669;49.594;10.958;2023-12-07T10:39:02;3.00;99.90
9265;DHT22;4669;49.594;10.958;2023-12-07T10:44:09;3.10;99.90
9265;DHT22;4669;49.594;10.958;2023-12-07T10:49:17;3.20;99.90
9265;DHT22;4669;49.594;10.958;2023-12-07T10:54:22;3.10;99.90
9265;DHT22;4669;49.594;10.958;2023-12-07T10:59:26;3.10;99.90
9265;DHT22;4669;49.594;10.958;2023-12-07T11:04:29;3.20;99.90
9265;DHT22;4669;49.594;10.958;2023-12-07T11:09:35;3.10;99.90
9265;DHT22;4669;49.594;10.958;2023-12-07T11:14:42;3.20;99.90
9265;DHT22;4669;49.594;10.958;2023-12-07T11:19:45;3.10;99.90
9265;DHT22;4669;49.594;10.958;2023-12-07T11:24:54;3.10;99.90
9265;DHT22;4669;49.594;10.958;2023-12-07T11:30:00;3.20;99.90
9265;DHT22;4669;49.594;10.958;2023-12-07T11:35:03;3.20;99.90
9265;DHT22;4669;49.594;10.958;2023-12-07T11:40:07;3.30;99.90
9265;DHT22;4669;49.594;10.958;2023-12-07T11:45:11;3.30;99.90
9265;DHT22;4669;49.594;10.958;2023-12-07T11:50:13;3.30;99.90
9265;DHT22;4669;49.594;10.958;2023-12-07T11:55:15;3.30;99.90
9265;DHT22;4669;49.594;10.958;2023-12-07T12:00:20;3.30;99.90
9265;DHT22;4669;49.594;10.958;2023-12-07T12:05:22;3.40;99.90
9265;DHT22;4669;49.594;10.958;2023-12-07T12:10:24;3.40;99.90
9265;DHT22;4669;49.594;10.958;2023-12-07T12:15:28;3.40;99.90
9265;DHT22;4669;49.594;10.958;2023-12-07T12:20:30;3.40;99.90
9265;DHT22;4669;49.594;10.958;2023-12-07T12:25:34;3.50;99.90
9265;DHT22;4669;49.594;10.958;2023-12-07T12:30:37;3.40;99.90
9265;DHT22;4669;49.594;10.958;2023-12-07T12:35:40;3.50;99.90
9265;DHT22;4669;49.594;10.958;2023-12-07T12:40:42;3.60;99.90
9265;DHT22;4669;49.594;10.958;2023-12-07T12:45:46;3.70;99.90
9265;DHT22;4669;49.594;10.958;2023-12-07T12:50:48;3.70;99.90
9265;DHT22;4669;49.594;10.958;2023-12-07T12:55:50;3.70;99.90
9265;DHT22;4669;49.594;10.958;2023-12-07T13:00:53;3.60;99.90
9265;DHT22;4669;49.594;10.958;2023-12-07T13:05:57;3.50;99.90
9265;DHT22;4669;49.594;10.958;2023-12-07T13:10:59;3.50;99.90
9265;DHT22;4669;49.594;10.958;2023-12-07T13:16:03;3.50;99.90
9265;DHT22;4669;49.594;10.958;2023-12-07T13:21:05;3.50;99.90
9265;DHT22;4669;49.594;10.958;2023-12-07T13:26:07;3.60;99.90
9265;DHT22;4669;49.594;10.958;2023-12-07T13:31:10;3.60;99.90
9265;DHT22;4669;49.594;10.958;2023-12-07T13:36:13;3.50;99.90
9265;DHT22;4669;49.594;10.958;2023-12-07T13:41:18;3.50;99.90
9265;DHT22;4669;49.594;10.958;2023-12-07T13:46:22;3.40;99.90
9265;DHT22;4669;49.594;10.958;2023-12-07T13:51:24;3.30;99.90
9265;DHT22;4669;49.594;10.958;2023-12-07T13:56:26;3.20;99.90
9265;DHT22;4669;49.594;10.958;2023-12-07T14:01:30;3.20;99.90
9265;DHT22;4669;49.594;10.958;2023-12-07T14:06:33;3.10;99.90
9265;DHT22;4669;49.594;10.958;2023-12-07T14:11:36;3.00;99.90
9265;DHT22;4669;49.594;10.958;2023-12-07T14:16:41;2.90;99.90
9265;DHT22;4669;49.594;10.958;2023-12-07T14:21:43;2.90;99.90
9265;DHT22;4669;49.594;10.958;2023-12-07T14:26:45;2.90;99.90
9265;DHT22;4669;49.594;10.958;2023-12-07T14:31:49;2.80;99.90
9265;DHT22;4669;49.594;10.958;2023-12-07T14:36:52;2.70;99.90
9265;DHT22;4669;49.594;10.958;2023-12-07T14:41:54;2.70;99.90
9265;DHT22;4669;49.594;10.958;2023-12-07T14:46:58;2.60;99.90
9265;DHT22;4669;49.594;10.958;2023-12-07T14:52:00;2.60;99.90
9265;DHT22;4669;49.594;10.958;2023-12-07T14:57:03;2.50;99.90
9265;DHT22;4669;49.594;10.958;2023-12-07T15:02:10;2.50;99.90
9265;DHT22;4669;49.594;10.958;2023-12-07T15:07:12;2.50;99.90
9265;DHT22;4669;49.594;10.958;2023-12-07T15:12:15;2.40;99.90
9265;DHT22;4669;49.594;10.958;2023-12-07T15:17:21;2.30;99.90
9265;DHT22;4669;49.594;10.958;2023-12-07T15:22:23;2.40;99.90
9265;DHT22;4669;49.594;10.958;2023-12-07T15:27:25;2.30;99.90
9265;DHT22;4669;49.594;10.958;2023-12-07T15:32:29;2.30;99.90
9265;DHT22;4669;49.594;10.958;2023-12-07T15:37:31;2.30;99.90
9265;DHT22;4669;49.594;10.958;2023-12-07T15:42:33;2.20;99.90
9265;DHT22;4669;49.594;10.958;2023-12-07T15:47:36;2.20;99.90
9265;DHT22;4669;49.594;10.958;2023-12-07T15:52:38;2.20;99.90
9265;DHT22;4669;49.594;10.958;2023-12-07T15:57:40;2.20;99.90
9265;DHT22;4669;49.594;10.958;2023-12-07T16:02:43;2.10;99.90
9265;DHT22;4669;49.594;10.958;2023-12-07T16:07:46;2.10;99.90
9265;DHT22;4669;49.594;10.958;2023-12-07T16:12:48;2.00;99.90
9265;DHT22;4669;49.594;10.958;2023-12-07T16:17:51;2.00;99.90
9265;DHT22;4669;49.594;10.958;2023-12-07T16:22:53;2.00;99.90
9265;DHT22;4669;49.594;10.958;2023-12-07T16:27:55;2.00;99.90
9265;DHT22;4669;49.594;10.958;2023-12-07T16:32:58;2.00;99.90
9265;DHT22;4669;49.594;10.958;2023-12-07T16:38:00;2.00;99.90
9265;DHT22;4669;49.594;10.958;2023-12-07T16:43:02;1.90;99.90
9265;DHT22;4669;49.594;10.958;2023-12-07T16:48:06;1.90;99.90
9265;DHT22;4669;49.594;10.958;2023-12-07T16:53:08;1.90;99.90
9265;DHT22;4669;49.594;10.958;2023-12-07T16:58:10;1.90;99.90
9265;DHT22;4669;49.594;10.958;2023-12-07T17:03:13;1.80;99.90
9265;DHT22;4669;49.594;10.958;2023-12-07T17:08:17;1.80;99.90
9265;DHT22;4669;49.594;10.958;2023-12-07T17:13:21;1.80;99.90
9265;DHT22;4669;49.594;10.958;2023-12-07T17:18:25;1.70;99.90
9265;DHT22;4669;49.594;10.958;2023-12-07T17:23:27;1.70;99.90
9265;DHT22;4669;49.594;10.958;2023-12-07T17:28:29;1.70;99.90
9265;DHT22;4669;49.594;10.958;2023-12-07T17:33:32;1.70;99.90
9265;DHT22;4669;49.594;10.958;2023-12-07T17:38:34;1.70;99.90
9265;DHT22;4669;49.594;10.958;2023-12-07T17:43:36;1.70;99.90
9265;DHT22;4669;49.594;10.958;2023-12-07T17:48:40;1.70;99.90
9265;DHT22;4669;49.594;10.958;2023-12-07T17:53:42;1.60;99.90
9265;DHT22;4669;49.594;10.958;2023-12-07T17:58:44;1.60;99.90
9265;DHT22;4669;49.594;10.958;2023-12-07T18:03:47;1.60;99.90
9265;DHT22;4669;49.594;10.958;2023-12-07T18:08:49;1.60;99.90
9265;DHT22;4669;49.594;10.958;2023-12-07T18:13:52;1.60;99.90
9265;DHT22;4669;49.594;10.958;2023-12-07T18:18:56;1.50;99.90
9265;DHT22;4669;49.594;10.958;2023-12-07T18:29:04;1.50;99.90
9265;DHT22;4669;49.594;10.958;2023-12-07T18:34:10;1.50;99.90
9265;DHT22;4669;49.594;10.958;2023-12-07T18:39:12;1.40;99.90
9265;DHT22;4669;49.594;10.958;2023-12-07T18:44:14;1.40;99.90
9265;DHT22;4669;49.594;10.958;2023-12-07T18:49:18;1.40;99.90
9265;DHT22;4669;49.594;10.958;2023-12-07T18:54:20;1.40;99.90
9265;DHT22;4669;49.594;10.958;2023-12-07T18:59:22;1.40;99.90
9265;DHT22;4669;49.594;10.958;2023-12-07T19:04:25;1.30;99.90
9265;DHT22;4669;49.594;10.958;2023-12-07T19:09:27;1.30;99.90
9265;DHT22;4669;49.594;10.958;2023-12-07T19:14:29;1.30;99.90
9265;DHT22;4669;49.594;10.958;2023-12-07T19:19:33;1.30;99.90
9265;DHT22;4669;49.594;10.958;2023-12-07T19:24:35;1.30;99.90
9265;DHT22;4669;49.594;10.958;2023-12-07T19:29:37;1.30;99.90
9265;DHT22;4669;49.594;10.958;2023-12-07T19:34:40;1.30;99.90
9265;DHT22;4669;49.594;10.958;2023-12-07T19:39:42;1.30;99.90
9265;DHT22;4669;49.594;10.958;2023-12-07T19:44:45;1.20;99.90
9265;DHT22;4669;49.594;10.958;2023-12-07T19:49:48;1.20;99.90
9265;DHT22;4669;49.594;10.958;2023-12-07T19:54:50;1.10;99.90
9265;DHT22;4669;49.594;10.958;2023-12-07T19:59:52;1.10;99.90
9265;DHT22;4669;49.594;10.958;2023-12-07T20:04:56;1.10;99.90
9265;DHT22;4669;49.594;10.958;2023-12-07T20:09:58;1.10;99.90
9265;DHT22;4669;49.594;10.958;2023-12-07T20:15:00;1.10;99.90
9265;DHT22;4669;49.594;10.958;2023-12-07T20:20:06;1.10;99.90
9265;DHT22;4669;49.594;10.958;2023-12-07T20:25:09;1.00;99.90
9265;DHT22;4669;49.594;10.958;2023-12-07T20:30:11;1.00;99.90
9265;DHT22;4669;49.594;10.958;2023-12-07T20:35:15;1.00;99.90
9265;DHT22;4669;49.594;10.958;2023-12-07T20:40:17;0.90;99.90
9265;DHT22;4669;49.594;10.958;2023-12-07T20:45:19;0.90;99.90
9265;DHT22;4669;49.594;10.958;2023-12-07T20:50:22;0.80;99.90
9265;DHT22;4669;49.594;10.958;2023-12-07T20:55:24;0.80;99.90
9265;DHT22;4669;49.594;10.958;2023-12-07T21:00:29;0.70;99.90
9265;DHT22;4669;49.594;10.958;2023-12-07T21:05:32;0.70;99.90
9265;DHT22;4669;49.594;10.958;2023-12-07T21:10:34;0.70;99.90
9265;DHT22;4669;49.594;10.958;2023-12-07T21:15:36;0.70;99.90
9265;DHT22;4669;49.594;10.958;2023-12-07T21:20:40;0.70;99.90
9265;DHT22;4669;49.594;10.958;2023-12-07T21:25:42;0.70;99.90
9265;DHT22;4669;49.594;10.958;2023-12-07T21:30:44;0.70;99.90
9265;DHT22;4669;49.594;10.958;2023-12-07T21:35:47;0.60;99.90
9265;DHT22;4669;49.594;10.958;2023-12-07T21:40:49;0.60;99.90
9265;DHT22;4669;49.594;10.958;2023-12-07T21:45:51;0.50;99.90
9265;DHT22;4669;49.594;10.958;2023-12-07T21:50:55;0.50;99.90
9265;DHT22;4669;49.594;10.958;2023-12-07T21:55:57;0.50;99.90
9265;DHT22;4669;49.594;10.958;2023-12-07T22:00:59;0.30;99.90
9265;DHT22;4669;49.594;10.958;2023-12-07T22:06:03;0.30;99.90
9265;DHT22;4669;49.594;10.958;2023-12-07T22:11:05;0.30;99.90
9265;DHT22;4669;49.594;10.958;2023-12-07T22:16:09;0.30;99.90
9265;DHT22;4669;49.594;10.958;2023-12-07T22:21:13;0.30;99.90
9265;DHT22;4669;49.594;10.958;2023-12-07T22:26:15;0.30;99.90
9265;DHT22;4669;49.594;10.958;2023-12-07T22:31:17;0.20;99.90
9265;DHT22;4669;49.594;10.958;2023-12-07T22:36:20;0.20;99.90
9265;DHT22;4669;49.594;10.958;2023-12-07T22:41:25;0.20;99.90
9265;DHT22;4669;49.594;10.958;2023-12-07T22:46:27;0.20;99.90
9265;DHT22;4669;49.594;10.958;2023-12-07T22:51:31;0.20;99.90
9265;DHT22;4669;49.594;10.958;2023-12-07T22:56:33;0.20;99.90
